Morgan Ray — WDF6085 — position and weather

sailwx.info

Track history (hours):
 
Tides and Currents Weather Stations Pressure Air Temp Water Temp Dewpoint Dewpoint Depression Visibility Wind Speed Wind Dir Waves Ship Positions

Morgan Ray

Owner: Daigle Towing Service LLC., Belle Chasse, LA. More information available from US FCC via Universal Licensing System and Coast Guard Vessel Documentation Center.

Last reported at 2015-Aug-28 00:20 UTC. Time now 2015-Aug-28 05:12 UTC.
Position N 29°54' W 090°05'.

Length 20 m; draft 2 m.

Type: Tug. MMSI: 367470470.

Date/timePositionNaut miles runAvg speedWind from/ knotsBaromVisibWave heightAir tempDewpointWater temp
2015-Aug-28 00:20N 29°54' W 090°05'1 0.1
2015-Aug-27 14:33N 29°55' W 090°05'0 0.0
2015-Aug-27 13:30N 29°55' W 090°05'2 2.4
2015-Aug-27 12:33N 29°57' W 090°04'0 0.0
2015-Aug-27 11:28N 29°57' W 090°04'0 0.0
2015-Aug-27 10:32N 29°57' W 090°04'0 0.0
2015-Aug-27 09:33N 29°57' W 090°04'0 0.0
2015-Aug-27 08:33N 29°57' W 090°04'0 0.0
2015-Aug-27 07:33N 29°57' W 090°04'0 0.0
2015-Aug-27 06:33N 29°57' W 090°04'0 0.0
2015-Aug-27 05:30N 29°57' W 090°04'0 0.0
2015-Aug-27 04:30N 29°57' W 090°04'0 0.0
2015-Aug-27 03:29N 29°57' W 090°04'0 0.0
2015-Aug-27 02:24N 29°57' W 090°04'0 0.0
2015-Aug-26 08:30N 29°57' W 090°04'0 0.0
2015-Aug-26 07:19N 29°57' W 090°04'0 0.0
2015-Aug-26 06:18N 29°57' W 090°04'0 0.0
2015-Aug-26 05:28N 29°57' W 090°04'0 0.0
2015-Aug-26 03:30N 29°57' W 090°04'0 0.0
2015-Aug-26 02:29N 29°57' W 090°04'0 0.0
2015-Aug-26 01:29N 29°57' W 090°04'0 0.0
2015-Aug-25 23:11N 29°57' W 090°04'0 0.0
2015-Aug-25 22:30N 29°57' W 090°04'0 0.0
2015-Aug-25 21:29N 29°57' W 090°04'0 0.0
2015-Aug-25 20:31N 29°57' W 090°04'0 0.0
2015-Aug-25 19:32N 29°57' W 090°04'0 0.0
2015-Aug-25 18:31N 29°57' W 090°04'0 0.0
2015-Aug-25 17:30N 29°57' W 090°04'0 0.0
2015-Aug-25 16:32N 29°57' W 090°04'1 1.2
2015-Aug-25 15:33N 29°58' W 090°03'0 0.5
2015-Aug-25 14:32N 29°58' W 090°03'0 0.0
2015-Aug-25 13:31N 29°58' W 090°03'0 0.2
2015-Aug-25 12:33N 29°57' W 090°03'0 0.0
2015-Aug-25 11:30N 29°58' W 090°04'4 0.2
2015-Aug-24 12:14N 29°54' W 090°05'0 0.0
2015-Aug-24 11:32N 29°54' W 090°05'0 0.0
2015-Aug-24 07:32N 29°54' W 090°05'0 0.0
2015-Aug-24 06:21N 29°54' W 090°05'0 0.0
2015-Aug-24 05:30N 29°54' W 090°05'0 0.0
2015-Aug-24 04:30N 29°54' W 090°05'0 0.0
2015-Aug-24 03:32N 29°54' W 090°05'0 0.0
2015-Aug-24 02:33N 29°54' W 090°05'0 0.0
2015-Aug-24 01:30N 29°54' W 090°05'0 0.0
2015-Aug-23 23:15N 29°54' W 090°05'0 0.0
2015-Aug-23 22:32N 29°54' W 090°05'0 0.0
2015-Aug-23 21:31N 29°54' W 090°05'0 0.0
2015-Aug-23 20:28N 29°54' W 090°05'0 0.0
2015-Aug-23 19:31N 29°54' W 090°05'0 0.0
2015-Aug-22 21:27N 29°54' W 090°05'0 0.0
2015-Aug-22 19:33N 29°54' W 090°05'4 0.3
2015-Aug-22 06:21N 29°57' W 090°01'4 2.3
2015-Aug-22 04:23N 29°54' W 090°05'32 2.7
2015-Aug-21 16:16N 29°34' W 090°34'4 5.9
2015-Aug-21 15:33N 29°35' W 090°38'4 3.8
2015-Aug-21 14:33N 29°36' W 090°43'3 2.8
2015-Aug-21 13:34N 29°34' W 090°44'  
2015-Aug-19 01:33N 29°31' W 094°53'7 7.2
2015-Aug-19 00:34N 29°38' W 094°58'  
Track history (hours):
 
Tides and Currents Weather Stations Pressure Air Temp Water Temp Dewpoint Dewpoint Depression Visibility Wind Speed Wind Dir Waves Ship Positions

Morgan Ray

Owner: Daigle Towing Service LLC., Belle Chasse, LA. More information available from US FCC via Universal Licensing System and Coast Guard Vessel Documentation Center.

Last reported at 2015-Aug-28 00:20 UTC. Time now 2015-Aug-28 05:12 UTC.
Position N 29°54' W 090°05'.

Length 20 m; draft 2 m.

Type: Tug. MMSI: 367470470.

Date/timePositionNaut miles runAvg speedWind from/ knotsBaromVisibWave heightAir tempDewpointWater temp
2015-Aug-28 00:20N 29°54' W 090°05'1 0.1
2015-Aug-27 14:33N 29°55' W 090°05'0 0.0
2015-Aug-27 13:30N 29°55' W 090°05'2 2.4
2015-Aug-27 12:33N 29°57' W 090°04'0 0.0
2015-Aug-27 11:28N 29°57' W 090°04'0 0.0
2015-Aug-27 10:32N 29°57' W 090°04'0 0.0
2015-Aug-27 09:33N 29°57' W 090°04'0 0.0
2015-Aug-27 08:33N 29°57' W 090°04'0 0.0
2015-Aug-27 07:33N 29°57' W 090°04'0 0.0
2015-Aug-27 06:33N 29°57' W 090°04'0 0.0
2015-Aug-27 05:30N 29°57' W 090°04'0 0.0
2015-Aug-27 04:30N 29°57' W 090°04'0 0.0
2015-Aug-27 03:29N 29°57' W 090°04'0 0.0
2015-Aug-27 02:24N 29°57' W 090°04'0 0.0
2015-Aug-26 08:30N 29°57' W 090°04'0 0.0
2015-Aug-26 07:19N 29°57' W 090°04'0 0.0
2015-Aug-26 06:18N 29°57' W 090°04'0 0.0
2015-Aug-26 05:28N 29°57' W 090°04'0 0.0
2015-Aug-26 03:30N 29°57' W 090°04'0 0.0
2015-Aug-26 02:29N 29°57' W 090°04'0 0.0
2015-Aug-26 01:29N 29°57' W 090°04'0 0.0
2015-Aug-25 23:11N 29°57' W 090°04'0 0.0
2015-Aug-25 22:30N 29°57' W 090°04'0 0.0
2015-Aug-25 21:29N 29°57' W 090°04'0 0.0
2015-Aug-25 20:31N 29°57' W 090°04'0 0.0
2015-Aug-25 19:32N 29°57' W 090°04'0 0.0
2015-Aug-25 18:31N 29°57' W 090°04'0 0.0
2015-Aug-25 17:30N 29°57' W 090°04'0 0.0
2015-Aug-25 16:32N 29°57' W 090°04'1 1.2
2015-Aug-25 15:33N 29°58' W 090°03'0 0.5
2015-Aug-25 14:32N 29°58' W 090°03'0 0.0
2015-Aug-25 13:31N 29°58' W 090°03'0 0.2
2015-Aug-25 12:33N 29°57' W 090°03'0 0.0
2015-Aug-25 11:30N 29°58' W 090°04'4 0.2
2015-Aug-24 12:14N 29°54' W 090°05'0 0.0
2015-Aug-24 11:32N 29°54' W 090°05'0 0.0
2015-Aug-24 07:32N 29°54' W 090°05'0 0.0
2015-Aug-24 06:21N 29°54' W 090°05'0 0.0
2015-Aug-24 05:30N 29°54' W 090°05'0 0.0
2015-Aug-24 04:30N 29°54' W 090°05'0 0.0
2015-Aug-24 03:32N 29°54' W 090°05'0 0.0
2015-Aug-24 02:33N 29°54' W 090°05'0 0.0
2015-Aug-24 01:30N 29°54' W 090°05'0 0.0
2015-Aug-23 23:15N 29°54' W 090°05'0 0.0
2015-Aug-23 22:32N 29°54' W 090°05'0 0.0
2015-Aug-23 21:31N 29°54' W 090°05'0 0.0
2015-Aug-23 20:28N 29°54' W 090°05'0 0.0
2015-Aug-23 19:31N 29°54' W 090°05'0 0.0
2015-Aug-22 21:27N 29°54' W 090°05'0 0.0
2015-Aug-22 19:33N 29°54' W 090°05'4 0.3
2015-Aug-22 06:21N 29°57' W 090°01'4 2.3
2015-Aug-22 04:23N 29°54' W 090°05'32 2.7
2015-Aug-21 16:16N 29°34' W 090°34'4 5.9
2015-Aug-21 15:33N 29°35' W 090°38'4 3.8
2015-Aug-21 14:33N 29°36' W 090°43'3 2.8
2015-Aug-21 13:34N 29°34' W 090°44'  
2015-Aug-19 01:33N 29°31' W 094°53'7 7.2
2015-Aug-19 00:34N 29°38' W 094°58'  

Dump ship's entire track history